Geneva, Minnesota
Current Conditions -  °F | °C
As of 1:14 PM on Monday 20 Oct 2014 (Local Time) from KAEL Reporting Station
Clear Clear  
Wind Chill: 64°   Ceiling: Unl
Heat Index: 64°   Visibility: 10mi
Dew Point: 39°   Wind: 10mph
Humidity: 40%   Direction: 340°NNW
Pressure: 29.98"   Gusts: 26mph
Location:  43.82°N, 93.27°W
Report Text: KAEL 201814Z AUTO 34009G23KT 10SM CLR 18/04 A2998 RMK AO2
Loading
Personal Weather Stations






























Interactive Weather Map
Tropical Storm Tracking
New forecast layout! Learn more

10-Day Weather Forecast

Advertisements
Track Severe Weather on mobile